Time;durP1;ratioP1;P1;durP2;ratioP2;P2;SDS_P1;SDS_P2;PMS_P1;PMS_P2;Temp;Humidity;BMP_temperature;BMP_pressure;BME280_temperature;BME280_humidity;BME280_pressure;Samples;Min_cycle;Max_cycle;Signal;HPM_P1;HPM_P2
2023/08/07 00:01:44;;;;;;;1.67;1.00;;;21.10;66.10;;;;;;5025673;28;20041;-77
2023/08/07 00:04:10;;;;;;;0.65;0.60;;;21.10;66.10;;;;;;5022509;28;20052;-77
2023/08/07 00:06:35;;;;;;;1.02;0.60;;;21.10;66.10;;;;;;5025099;28;20456;-78
2023/08/07 00:09:01;;;;;;;0.80;0.80;;;21.10;66.10;;;;;;5024509;28;20049;-77
2023/08/07 00:11:28;;;;;;;1.15;0.88;;;21.10;66.40;;;;;;5026871;28;20041;-77
2023/08/07 00:13:54;;;;;;;0.60;0.52;;;21.10;66.20;;;;;;5023273;28;20045;-78
2023/08/07 00:16:19;;;;;;;1.20;0.95;;;21.00;66.20;;;;;;5024579;28;20410;-77
2023/08/07 00:18:45;;;;;;;1.30;0.90;;;21.10;66.40;;;;;;5022399;28;20091;-77
2023/08/07 00:21:10;;;;;;;1.25;0.80;;;21.00;66.30;;;;;;5025072;28;20033;-77
2023/08/07 00:23:36;;;;;;;0.70;0.70;;;21.10;66.30;;;;;;5008990;28;20427;-78
2023/08/07 00:26:02;;;;;;;0.77;0.77;;;21.10;66.40;;;;;;5025706;28;20059;-77
2023/08/07 00:28:29;;;;;;;1.45;0.68;;;21.00;66.30;;;;;;5026408;28;20507;-77
2023/08/07 00:30:55;;;;;;;0.60;0.60;;;21.10;66.20;;;;;;5023986;28;20050;-77
2023/08/07 00:33:20;;;;;;;1.70;0.85;;;21.10;66.20;;;;;;5024466;28;20137;-77
2023/08/07 00:35:46;;;;;;;0.60;0.60;;;21.00;66.30;;;;;;5028355;28;20522;-77
2023/08/07 00:38:11;;;;;;;0.65;0.60;;;21.10;66.40;;;;;;5021274;28;22112;-77
2023/08/07 00:40:38;;;;;;;1.10;0.70;;;21.00;66.30;;;;;;5024411;28;20117;-77
2023/08/07 00:43:04;;;;;;;2.05;0.95;;;21.10;66.40;;;;;;5024374;28;20044;-77
2023/08/07 00:45:30;;;;;;;1.23;0.80;;;21.00;66.40;;;;;;5023190;28;20438;-77
2023/08/07 00:47:55;;;;;;;0.90;0.70;;;21.10;66.50;;;;;;5024326;28;20407;-77
2023/08/07 00:50:21;;;;;;;1.05;0.90;;;21.00;66.20;;;;;;5027277;28;20046;-77
2023/08/07 00:52:46;;;;;;;0.60;0.60;;;21.00;67.10;;;;;;5023010;28;20045;-77
2023/08/07 00:55:12;;;;;;;0.50;0.50;;;21.00;66.20;;;;;;5024893;28;20041;-77
2023/08/07 00:57:37;;;;;;;0.75;0.75;;;21.00;66.20;;;;;;5023579;28;20422;-77
2023/08/07 01:00:04;;;;;;;0.57;0.57;;;21.00;66.30;;;;;;5024862;28;20542;-77
2023/08/07 01:02:29;;;;;;;1.30;1.00;;;21.10;66.30;;;;;;5027044;28;20044;-77
2023/08/07 01:04:55;;;;;;;1.33;0.82;;;21.10;66.40;;;;;;5022163;28;20380;-77
2023/08/07 01:07:20;;;;;;;1.02;0.70;;;21.00;66.60;;;;;;5022711;28;20042;-77
2023/08/07 01:09:46;;;;;;;1.13;0.80;;;21.00;66.10;;;;;;5022861;28;20025;-77
2023/08/07 01:12:16;;;;;;;0.70;0.70;;;21.00;66.50;;;;;;5007869;28;20037;-77
2023/08/07 01:14:46;;;;;;;0.82;0.63;;;21.00;66.10;;;;;;5025335;28;20033;-77
2023/08/07 01:17:15;;;;;;;0.60;0.60;;;21.00;66.20;;;;;;5022444;28;20092;-77
2023/08/07 01:19:41;;;;;;;1.02;0.95;;;21.00;66.30;;;;;;4994956;28;20172;-77
2023/08/07 01:22:10;;;;;;;0.90;0.60;;;21.00;66.10;;;;;;5007973;28;20128;-77
2023/08/07 01:24:36;;;;;;;0.95;0.85;;;21.00;66.10;;;;;;5023583;28;20053;-77
2023/08/07 01:27:17;;;;;;;0.70;0.70;;;21.00;66.10;;;;;;5007626;28;20579;-77
2023/08/07 01:30:13;;;;;;;0.63;0.63;;;21.00;66.00;;;;;;5020744;28;20048;-77
2023/08/07 01:32:45;;;;;;;2.25;1.05;;;21.00;66.10;;;;;;5024135;28;20044;-78
2023/08/07 01:35:11;;;;;;;0.65;0.50;;;21.00;66.10;;;;;;5021850;28;20037;-77
2023/08/07 01:37:39;;;;;;;1.77;0.80;;;21.00;66.10;;;;;;5022184;28;20033;-76
2023/08/07 01:40:06;;;;;;;1.00;0.90;;;21.00;66.10;;;;;;5021996;28;20041;-77
2023/08/07 01:42:32;;;;;;;0.50;0.45;;;21.00;66.00;;;;;;5007876;28;20029;-77
2023/08/07 01:44:58;;;;;;;0.63;0.63;;;21.00;66.10;;;;;;5006632;28;20365;-77
2023/08/07 01:47:23;;;;;;;1.05;0.77;;;21.00;66.10;;;;;;5024039;28;20064;-77
2023/08/07 01:49:49;;;;;;;0.93;0.65;;;21.00;66.00;;;;;;5023342;28;20063;-77
2023/08/07 01:52:15;;;;;;;1.15;0.77;;;21.00;66.00;;;;;;5023144;28;20061;-77
2023/08/07 01:54:40;;;;;;;0.82;0.60;;;21.00;65.90;;;;;;5021871;28;20041;-77
2023/08/07 01:57:06;;;;;;;0.80;0.52;;;21.00;65.90;;;;;;5023834;28;20629;-77
2023/08/07 01:59:31;;;;;;;1.02;0.85;;;21.00;66.20;;;;;;5024167;28;20486;-77
2023/08/07 02:01:57;;;;;;;0.73;0.73;;;21.00;65.90;;;;;;5024335;28;22320;-77
2023/08/07 02:04:23;;;;;;;0.75;0.60;;;21.00;66.00;;;;;;5023040;28;20124;-77
2023/08/07 02:06:48;;;;;;;1.20;0.60;;;20.90;65.90;;;;;;5018981;28;20582;-77
2023/08/07 02:09:14;;;;;;;0.60;0.50;;;21.00;65.90;;;;;;5003665;28;20026;-77
2023/08/07 02:11:39;;;;;;;0.70;0.70;;;20.90;65.80;;;;;;5023484;28;20042;-76
2023/08/07 02:14:05;;;;;;;1.15;0.50;;;20.90;65.90;;;;;;5007449;28;20030;-77
2023/08/07 02:16:30;;;;;;;0.60;0.50;;;20.90;66.10;;;;;;5024638;28;20551;-78
2023/08/07 02:18:56;;;;;;;2.30;0.50;;;20.90;66.00;;;;;;5024698;28;20093;-77
2023/08/07 02:21:22;;;;;;;0.75;0.65;;;20.90;66.00;;;;;;5021024;28;20041;-77
2023/08/07 02:23:47;;;;;;;0.65;0.50;;;20.90;66.00;;;;;;5024144;28;20038;-77
2023/08/07 02:26:13;;;;;;;0.63;0.43;;;20.90;65.90;;;;;;5022939;28;20045;-77
2023/08/07 02:28:38;;;;;;;0.60;0.60;;;21.00;65.90;;;;;;5022390;28;20091;-78
2023/08/07 02:31:04;;;;;;;0.70;0.60;;;20.90;66.00;;;;;;5008301;28;20038;-77
2023/08/07 02:33:30;;;;;;;0.93;0.70;;;21.00;66.00;;;;;;5028934;28;20049;-77
2023/08/07 02:35:56;;;;;;;0.88;0.60;;;20.90;66.00;;;;;;5029032;28;20109;-77
2023/08/07 02:38:22;;;;;;;1.90;0.60;;;20.90;65.80;;;;;;5028862;28;20088;-77
2023/08/07 02:40:47;;;;;;;0.63;0.63;;;20.90;65.90;;;;;;5028718;28;20037;-77
2023/08/07 02:43:13;;;;;;;0.70;0.70;;;20.90;66.00;;;;;;5030609;28;20495;-77
2023/08/07 02:45:38;;;;;;;1.15;0.80;;;21.00;66.20;;;;;;5029301;28;20050;-77
2023/08/07 02:48:04;;;;;;;0.57;0.50;;;20.90;66.00;;;;;;5029787;28;20525;-77
2023/08/07 02:50:32;;;;;;;1.73;0.40;;;20.90;65.90;;;;;;5029089;28;20040;-77
2023/08/07 02:52:58;;;;;;;0.70;0.70;;;20.90;66.10;;;;;;5013390;28;20452;-78
2023/08/07 02:55:24;;;;;;;0.50;0.50;;;20.90;65.80;;;;;;5029667;28;20072;-77
2023/08/07 02:57:49;;;;;;;1.05;0.50;;;21.00;65.90;;;;;;5027564;28;20049;-77
2023/08/07 03:00:15;;;;;;;1.02;0.80;;;20.90;66.00;;;;;;5030655;28;20038;-77
2023/08/07 03:02:40;;;;;;;0.50;0.50;;;21.00;65.90;;;;;;5031718;28;20557;-77
2023/08/07 03:05:06;;;;;;;0.47;0.43;;;21.00;65.80;;;;;;5030355;28;20196;-77
2023/08/07 03:07:32;;;;;;;3.97;0.60;;;20.90;65.70;;;;;;5028763;28;20080;-77
2023/08/07 03:09:57;;;;;;;0.50;0.50;;;20.90;65.70;;;;;;5029216;28;20042;-77
2023/08/07 03:12:23;;;;;;;1.52;0.60;;;20.90;65.70;;;;;;5029707;28;20415;-77
2023/08/07 03:14:49;;;;;;;1.02;0.70;;;20.90;65.80;;;;;;5029153;28;20091;-77
2023/08/07 03:17:14;;;;;;;0.70;0.70;;;20.90;65.80;;;;;;5029011;28;20128;-77
2023/08/07 03:19:42;;;;;;;0.63;0.63;;;20.80;65.90;;;;;;5027983;28;20041;-77
2023/08/07 03:22:08;;;;;;;0.55;0.50;;;20.90;65.70;;;;;;5030560;28;20034;-77
2023/08/07 03:24:33;;;;;;;1.00;0.70;;;21.00;65.80;;;;;;5030812;28;20083;-77
2023/08/07 03:26:59;;;;;;;1.75;0.75;;;20.90;65.70;;;;;;5027842;28;20128;-77
2023/08/07 03:29:24;;;;;;;1.73;1.00;;;20.90;66.10;;;;;;5029708;28;20568;-77
2023/08/07 03:31:50;;;;;;;0.82;0.50;;;20.90;65.80;;;;;;5028983;28;20061;-77
2023/08/07 03:34:15;;;;;;;3.60;0.70;;;20.90;65.70;;;;;;5027242;28;20065;-77
2023/08/07 03:36:41;;;;;;;0.47;0.40;;;20.90;65.70;;;;;;5028810;28;20052;-77
2023/08/07 03:39:07;;;;;;;0.75;0.47;;;20.90;65.70;;;;;;5027922;28;20060;-77
2023/08/07 03:41:33;;;;;;;0.60;0.50;;;20.90;65.70;;;;;;5027858;28;20033;-77
2023/08/07 03:43:58;;;;;;;0.60;0.60;;;20.90;66.50;;;;;;5025131;28;20088;-77
2023/08/07 03:46:24;;;;;;;0.68;0.60;;;20.90;65.60;;;;;;5022249;28;20483;-77
2023/08/07 03:48:50;;;;;;;1.10;0.60;;;20.90;66.20;;;;;;5025320;28;20030;-76
2023/08/07 03:51:16;;;;;;;0.50;0.45;;;20.90;65.70;;;;;;5023954;28;20062;-77
2023/08/07 03:53:42;;;;;;;0.70;0.68;;;20.90;65.90;;;;;;5026527;28;20053;-77
2023/08/07 03:56:07;;;;;;;0.50;0.50;;;20.90;65.80;;;;;;5024600;28;20932;-77
2023/08/07 03:58:33;;;;;;;0.57;0.50;;;20.80;66.00;;;;;;5025872;28;20033;-77
2023/08/07 04:00:59;;;;;;;0.50;0.50;;;20.80;65.70;;;;;;5024248;28;20076;-77
2023/08/07 04:03:24;;;;;;;1.27;0.77;;;20.80;65.70;;;;;;5007577;28;20037;-77
2023/08/07 04:05:53;;;;;;;0.95;0.77;;;20.80;66.00;;;;;;5026940;28;20509;-76
2023/08/07 04:08:19;;;;;;;0.80;0.70;;;20.80;65.70;;;;;;5024449;28;20049;-77
2023/08/07 04:10:45;;;;;;;0.80;0.80;;;20.80;65.70;;;;;;5027106;28;20034;-76
2023/08/07 04:13:11;;;;;;;0.52;0.43;;;20.80;65.60;;;;;;5008821;28;20634;-77
2023/08/07 04:15:36;;;;;;;0.52;0.50;;;20.80;65.80;;;;;;5025348;28;20046;-77
2023/08/07 04:18:02;;;;;;;0.50;0.50;;;20.80;65.90;;;;;;5023611;28;20065;-77
2023/08/07 04:20:27;;;;;;;1.20;0.80;;;20.80;66.00;;;;;;5024972;28;20037;-77
2023/08/07 04:22:53;;;;;;;1.27;0.60;;;20.80;65.70;;;;;;5023508;28;20040;-77
2023/08/07 04:25:18;;;;;;;1.13;1.05;;;20.90;65.70;;;;;;5026923;28;20110;-77
2023/08/07 04:27:44;;;;;;;1.05;0.77;;;20.80;65.50;;;;;;5025060;28;20037;-77
2023/08/07 04:30:10;;;;;;;1.20;0.70;;;20.80;65.50;;;;;;5025269;28;20033;-77
2023/08/07 04:32:36;;;;;;;0.68;0.60;;;20.80;65.80;;;;;;5026348;28;20554;-77
2023/08/07 04:35:01;;;;;;;1.67;0.70;;;20.80;65.70;;;;;;5023465;28;20113;-76
2023/08/07 04:37:27;;;;;;;0.90;0.75;;;20.80;65.60;;;;;;5023305;28;20033;-77
2023/08/07 04:39:54;;;;;;;0.88;0.77;;;20.80;65.70;;;;;;5027182;28;20037;-77
2023/08/07 04:42:19;;;;;;;1.00;0.90;;;20.80;65.60;;;;;;5026689;28;20042;-76
2023/08/07 04:44:45;;;;;;;0.50;0.50;;;20.80;65.60;;;;;;5026272;28;20056;-77
2023/08/07 04:47:10;;;;;;;0.57;0.57;;;20.80;65.60;;;;;;5025635;28;20478;-77
2023/08/07 04:49:36;;;;;;;0.60;0.60;;;20.80;65.60;;;;;;5024541;28;20126;-77
2023/08/07 04:52:02;;;;;;;0.63;0.60;;;20.80;65.60;;;;;;5023432;28;20105;-76
2023/08/07 04:54:27;;;;;;;0.57;0.50;;;20.70;65.50;;;;;;5022691;28;20045;-77
2023/08/07 04:56:53;;;;;;;1.60;0.70;;;20.70;65.50;;;;;;5022888;28;20514;-77
2023/08/07 04:59:19;;;;;;;1.33;0.70;;;20.80;65.50;;;;;;5026446;28;20049;-76
2023/08/07 05:01:44;;;;;;;1.40;0.70;;;20.80;65.50;;;;;;5024573;28;20041;-77
2023/08/07 05:04:10;;;;;;;0.88;0.60;;;20.80;65.50;;;;;;5022979;28;22341;-77
2023/08/07 05:06:35;;;;;;;0.75;0.60;;;20.80;65.50;;;;;;5023436;28;20058;-77
2023/08/07 05:09:03;;;;;;;0.50;0.45;;;20.70;65.30;;;;;;5023214;28;20053;-77
2023/08/07 05:11:28;;;;;;;0.95;0.70;;;20.80;65.40;;;;;;5024829;28;20122;-77
2023/08/07 05:13:54;;;;;;;0.52;0.50;;;20.70;65.40;;;;;;5022344;28;20499;-77
2023/08/07 05:16:19;;;;;;;0.80;0.70;;;20.80;65.50;;;;;;5024058;28;20075;-77
2023/08/07 05:18:45;;;;;;;0.63;0.57;;;20.80;65.50;;;;;;5025822;28;20041;-77
2023/08/07 05:21:11;;;;;;;0.70;0.70;;;20.80;65.30;;;;;;5023754;28;20037;-77
2023/08/07 05:23:36;;;;;;;0.50;0.50;;;20.70;65.30;;;;;;5023610;28;20045;-76
2023/08/07 05:26:02;;;;;;;0.55;0.45;;;20.70;65.30;;;;;;5023218;28;20787;-76
2023/08/07 05:28:28;;;;;;;0.70;0.70;;;20.80;65.40;;;;;;5022750;28;20029;-77
2023/08/07 05:30:53;;;;;;;0.60;0.50;;;20.70;65.30;;;;;;5023283;28;20534;-77
2023/08/07 05:33:19;;;;;;;0.82;0.60;;;20.70;65.30;;;;;;5022575;28;20120;-77
2023/08/07 05:35:44;;;;;;;0.85;0.70;;;20.70;65.30;;;;;;5025276;28;20053;-77
2023/08/07 05:38:10;;;;;;;0.85;0.60;;;20.80;65.30;;;;;;5022533;28;20473;-77
2023/08/07 05:40:36;;;;;;;0.60;0.47;;;20.80;65.30;;;;;;5023007;28;20049;-77
2023/08/07 05:43:02;;;;;;;0.82;0.50;;;20.80;65.20;;;;;;5006302;28;20045;-76
2023/08/07 05:45:27;;;;;;;0.68;0.57;;;20.80;65.30;;;;;;5020943;28;20045;-77
2023/08/07 05:47:53;;;;;;;3.65;0.60;;;20.80;65.30;;;;;;5022130;28;20044;-77
2023/08/07 05:50:19;;;;;;;0.90;0.57;;;20.70;65.20;;;;;;5024052;28;20077;-77
2023/08/07 05:52:44;;;;;;;0.63;0.60;;;20.80;65.40;;;;;;5022923;28;20111;-76
2023/08/07 05:55:10;;;;;;;1.52;0.90;;;20.80;65.30;;;;;;5021725;28;20225;-77
2023/08/07 05:57:36;;;;;;;0.55;0.52;;;20.80;65.20;;;;;;5025384;28;20052;-77
2023/08/07 06:00:01;;;;;;;0.80;0.80;;;20.70;65.20;;;;;;5023787;28;20509;-77
2023/08/07 06:02:27;;;;;;;0.65;0.65;;;20.70;65.40;;;;;;5022321;28;20053;-77
2023/08/07 06:04:52;;;;;;;1.08;0.68;;;20.70;65.30;;;;;;5020008;28;20091;-76
2023/08/07 06:07:18;;;;;;;0.85;0.70;;;20.70;65.40;;;;;;5023718;28;20522;-76
2023/08/07 06:09:44;;;;;;;1.83;0.70;;;20.70;65.40;;;;;;5023659;28;20234;-77
2023/08/07 06:12:09;;;;;;;0.50;0.50;;;20.70;66.40;;;;;;5021598;28;20049;-77
2023/08/07 06:14:35;;;;;;;1.63;0.68;;;20.70;65.80;;;;;;5025328;28;20057;-77
2023/08/07 06:17:01;;;;;;;0.95;0.70;;;20.70;65.40;;;;;;5023938;28;20488;-77
2023/08/07 06:19:27;;;;;;;5.55;0.88;;;20.70;65.50;;;;;;5004643;28;20091;-77
2023/08/07 06:21:53;;;;;;;0.77;0.73;;;20.80;65.90;;;;;;5021980;28;20503;-76
2023/08/07 06:24:19;;;;;;;1.73;1.02;;;20.80;65.50;;;;;;5021732;28;20124;-75
2023/08/07 06:26:45;;;;;;;1.92;0.93;;;20.60;64.60;;;;;;5026721;28;20124;-75
2023/08/07 06:29:10;;;;;;;2.15;1.20;;;20.60;64.50;;;;;;5024499;28;20037;-75
2023/08/07 06:31:36;;;;;;;1.58;0.90;;;20.40;64.80;;;;;;5022718;28;20606;-75
2023/08/07 06:34:01;;;;;;;1.63;1.00;;;20.40;64.70;;;;;;5003445;28;20038;-75
2023/08/07 06:36:27;;;;;;;3.20;1.08;;;20.30;65.40;;;;;;5023049;28;20053;-75
2023/08/07 06:38:53;;;;;;;2.50;0.93;;;20.30;65.30;;;;;;5022772;28;20077;-76
2023/08/07 06:41:18;;;;;;;1.30;0.90;;;20.20;65.50;;;;;;5020368;28;20033;-75
2023/08/07 06:43:44;;;;;;;1.27;1.17;;;20.10;65.80;;;;;;5017699;28;21168;-77
2023/08/07 06:46:11;;;;;;;0.70;0.70;;;20.10;66.10;;;;;;5020566;28;20099;-76
2023/08/07 06:48:37;;;;;;;1.58;1.15;;;20.10;66.30;;;;;;5023399;28;20041;-75
2023/08/07 06:51:02;;;;;;;2.25;1.30;;;20.10;66.60;;;;;;5022685;28;20561;-76
2023/08/07 06:53:28;;;;;;;2.17;1.40;;;19.90;67.00;;;;;;5021412;28;20503;-78
2023/08/07 06:55:53;;;;;;;1.23;1.10;;;19.80;67.30;;;;;;5024963;28;20073;-79
2023/08/07 06:58:19;;;;;;;1.50;1.10;;;19.70;67.70;;;;;;5021673;28;20041;-75
2023/08/07 07:00:44;;;;;;;2.03;1.10;;;19.60;68.40;;;;;;5009592;28;20046;-76
2023/08/07 07:03:10;;;;;;;2.65;0.95;;;19.60;68.30;;;;;;5022257;28;20045;-75
2023/08/07 07:05:35;;;;;;;1.40;1.15;;;19.70;68.40;;;;;;5024124;28;20045;-75
2023/08/07 07:08:01;;;;;;;1.23;1.13;;;19.60;68.50;;;;;;5020383;28;20060;-75
2023/08/07 07:10:26;;;;;;;2.47;1.08;;;19.60;68.80;;;;;;5024111;28;20487;-76
2023/08/07 07:12:52;;;;;;;1.60;1.30;;;19.60;68.80;;;;;;5022016;28;20084;-75
2023/08/07 07:15:18;;;;;;;3.00;1.58;;;19.50;69.10;;;;;;5022321;28;20050;-75
2023/08/07 07:17:43;;;;;;;1.38;1.13;;;19.60;69.20;;;;;;5023344;28;20045;-76
2023/08/07 07:20:09;;;;;;;2.33;1.45;;;19.50;69.50;;;;;;5023112;28;20138;-75
2023/08/07 07:22:35;;;;;;;1.38;0.90;;;19.60;69.30;;;;;;5024989;28;20042;-74
2023/08/07 07:25:01;;;;;;;0.73;0.73;;;19.70;69.20;;;;;;5008486;28;20482;-75
2023/08/07 07:27:26;;;;;;;4.13;1.33;;;19.70;69.70;;;;;;5023575;28;20091;-75
2023/08/07 07:29:52;;;;;;;2.58;1.00;;;19.70;69.70;;;;;;5027332;28;20492;-75
2023/08/07 07:32:18;;;;;;;1.83;1.20;;;19.80;69.60;;;;;;5025597;28;20046;-75
2023/08/07 07:34:43;;;;;;;1.98;1.20;;;19.80;69.70;;;;;;5025800;28;20041;-74
2023/08/07 07:37:09;;;;;;;2.40;1.30;;;19.80;70.00;;;;;;5027499;28;20025;-75
2023/08/07 07:39:35;;;;;;;1.90;1.00;;;19.80;70.80;;;;;;5026969;28;20072;-75
2023/08/07 07:42:01;;;;;;;1.25;1.15;;;19.70;70.20;;;;;;5025854;28;20037;-75
2023/08/07 07:44:26;;;;;;;1.58;1.48;;;19.60;70.70;;;;;;5024858;28;20814;-76
2023/08/07 07:46:52;;;;;;;1.00;0.90;;;19.70;70.90;;;;;;5026243;28;20527;-76
2023/08/07 07:49:17;;;;;;;2.92;1.00;;;19.90;70.50;;;;;;5023259;28;20049;-76
2023/08/07 07:51:44;;;;;;;1.88;0.80;;;19.80;70.60;;;;;;5024281;28;20034;-76
2023/08/07 07:54:10;;;;;;;2.53;1.08;;;19.80;70.90;;;;;;5022560;28;20048;-75
2023/08/07 07:56:36;;;;;;;4.13;1.20;;;19.90;70.80;;;;;;5025997;28;20207;-76
2023/08/07 07:59:01;;;;;;;1.25;0.80;;;20.00;71.60;;;;;;5021212;28;20049;-74
2023/08/07 08:01:28;;;;;;;1.90;1.10;;;19.90;71.70;;;;;;5021612;28;20045;-76
2023/08/07 08:03:53;;;;;;;1.85;0.90;;;20.00;71.00;;;;;;5025473;28;20025;-76
2023/08/07 08:06:19;;;;;;;1.88;1.00;;;20.00;71.00;;;;;;5026762;28;20052;-76
2023/08/07 08:08:44;;;;;;;2.58;0.80;;;20.10;71.10;;;;;;5026652;28;20135;-76
2023/08/07 08:11:10;;;;;;;2.20;1.15;;;19.90;71.70;;;;;;5024718;28;20037;-76
2023/08/07 08:13:38;;;;;;;2.60;1.25;;;19.90;71.90;;;;;;5007554;28;20045;-74
2023/08/07 08:16:04;;;;;;;1.48;0.90;;;19.90;72.40;;;;;;5024654;28;20056;-75
2023/08/07 08:18:31;;;;;;;2.20;0.90;;;20.00;72.00;;;;;;5021434;28;20045;-75
2023/08/07 08:20:56;;;;;;;1.92;0.93;;;19.90;71.80;;;;;;5026426;28;20076;-76
2023/08/07 08:23:22;;;;;;;2.50;0.98;;;19.90;72.70;;;;;;5027739;28;20538;-75
2023/08/07 08:25:48;;;;;;;1.77;1.20;;;19.90;71.90;;;;;;5024116;28;20493;-75
2023/08/07 08:28:14;;;;;;;2.08;0.95;;;19.90;72.10;;;;;;5024271;28;20045;-74
2023/08/07 08:30:39;;;;;;;1.50;0.90;;;19.90;72.30;;;;;;5022505;28;20034;-74
2023/08/07 08:33:05;;;;;;;1.02;0.60;;;20.00;72.10;;;;;;5024843;28;20124;-75
2023/08/07 08:35:31;;;;;;;1.95;1.10;;;20.00;72.00;;;;;;5020618;28;20049;-75
2023/08/07 08:37:57;;;;;;;2.75;1.20;;;20.10;71.50;;;;;;5008484;28;20064;-75
2023/08/07 08:40:24;;;;;;;2.15;1.00;;;20.10;71.50;;;;;;5008504;28;20479;-75
2023/08/07 08:42:50;;;;;;;2.35;0.90;;;20.30;71.40;;;;;;5006607;28;20041;-76
2023/08/07 08:45:15;;;;;;;1.67;1.17;;;20.10;72.30;;;;;;5021980;28;20041;-76
2023/08/07 08:47:41;;;;;;;1.25;1.05;;;20.10;72.60;;;;;;5028777;28;20072;-76
2023/08/07 08:50:09;;;;;;;2.85;1.63;;;20.30;71.70;;;;;;5024128;28;20064;-75
2023/08/07 08:52:36;;;;;;;1.75;1.08;;;20.40;71.10;;;;;;5024005;28;20048;-76
2023/08/07 08:55:02;;;;;;;2.30;1.13;;;20.40;70.70;;;;;;5024963;28;20041;-76
2023/08/07 08:57:28;;;;;;;2.53;0.90;;;20.30;70.00;;;;;;4988804;28;20099;-76
2023/08/07 08:59:54;;;;;;;1.50;1.00;;;20.30;70.30;;;;;;5006435;28;20519;-76
2023/08/07 09:02:20;;;;;;;2.28;0.88;;;20.30;69.50;;;;;;5022987;28;20077;-77
2023/08/07 09:04:46;;;;;;;1.13;0.90;;;20.30;68.90;;;;;;5022260;28;20103;-77
2023/08/07 09:07:13;;;;;;;2.05;0.90;;;20.40;68.60;;;;;;5020119;28;20037;-77
2023/08/07 09:09:40;;;;;;;1.08;0.55;;;20.50;68.10;;;;;;5015697;28;20132;-78
2023/08/07 09:12:08;;;;;;;2.03;0.90;;;20.50;68.10;;;;;;5023842;28;20380;-78
2023/08/07 09:14:33;;;;;;;1.65;0.70;;;20.50;68.10;;;;;;5023825;28;20089;-78
2023/08/07 09:16:59;;;;;;;1.08;0.65;;;20.60;67.70;;;;;;5004549;28;20507;-79
2023/08/07 09:19:25;;;;;;;2.50;0.65;;;20.60;66.80;;;;;;5022941;28;20446;-80
2023/08/07 09:21:51;;;;;;;1.40;0.63;;;20.60;67.40;;;;;;5021989;28;20450;-80
2023/08/07 09:24:18;;;;;;;2.50;0.65;;;20.60;67.00;;;;;;5023654;28;20038;-79
2023/08/07 09:26:44;;;;;;;2.58;0.80;;;20.60;66.20;;;;;;5009349;28;20822;-78
2023/08/07 09:29:09;;;;;;;1.08;0.70;;;20.60;66.80;;;;;;5020856;28;20038;-79
2023/08/07 09:31:37;;;;;;;1.65;0.60;;;20.70;66.00;;;;;;4653658;28;9999771;-79
2023/08/07 09:34:06;;;;;;;0.85;0.80;;;20.80;66.20;;;;;;5000604;28;20081;-78
2023/08/07 09:36:32;;;;;;;1.40;0.68;;;20.70;66.40;;;;;;5017623;28;20037;-80
2023/08/07 09:39:01;;;;;;;0.88;0.77;;;20.70;65.10;;;;;;5021435;28;20061;-80
2023/08/07 09:41:28;;;;;;;0.88;0.80;;;20.80;65.20;;;;;;5021628;28;20050;-81
2023/08/07 09:43:54;;;;;;;1.23;0.50;;;20.80;65.90;;;;;;5020044;28;20050;-82
2023/08/07 09:46:20;;;;;;;0.82;0.70;;;20.80;64.10;;;;;;4986439;28;20052;-82
2023/08/07 09:48:45;;;;;;;0.88;0.68;;;20.80;64.10;;;;;;5005383;28;20091;-82
2023/08/07 09:51:11;;;;;;;1.38;0.60;;;20.80;64.00;;;;;;5003318;28;20045;-80
2023/08/07 09:53:36;;;;;;;0.90;0.60;;;20.80;64.70;;;;;;5003820;28;20419;-81
2023/08/07 09:56:02;;;;;;;0.95;0.45;;;20.80;64.20;;;;;;5020777;28;20088;-79
2023/08/07 09:58:28;;;;;;;1.60;0.70;;;20.90;63.40;;;;;;5018405;28;20499;-81
2023/08/07 10:00:55;;;;;;;0.60;0.40;;;20.80;64.90;;;;;;5004829;28;20029;-82
2023/08/07 10:03:21;;;;;;;0.63;0.50;;;20.90;64.10;;;;;;5021880;28;20049;-80
2023/08/07 10:05:47;;;;;;;1.02;0.70;;;20.90;63.10;;;;;;5008613;28;20037;-81
2023/08/07 10:08:12;;;;;;;1.48;0.60;;;20.90;61.70;;;;;;5023847;28;20045;-82
2023/08/07 10:10:38;;;;;;;0.65;0.50;;;20.90;61.50;;;;;;5020832;28;20119;-80
2023/08/07 10:13:04;;;;;;;0.90;0.60;;;20.90;61.40;;;;;;5006148;28;20041;-78
2023/08/07 10:15:31;;;;;;;0.77;0.40;;;20.90;61.90;;;;;;5020362;28;20049;-78
2023/08/07 10:17:57;;;;;;;0.85;0.43;;;20.90;61.60;;;;;;5005472;28;20087;-78
2023/08/07 10:20:24;;;;;;;1.08;0.50;;;20.90;61.90;;;;;;5021365;28;20124;-79
2023/08/07 10:22:49;;;;;;;0.50;0.43;;;21.00;61.40;;;;;;5021700;28;20046;-80
2023/08/07 10:25:15;;;;;;;0.63;0.40;;;21.00;61.20;;;;;;5022603;28;20037;-79
2023/08/07 10:27:41;;;;;;;0.50;0.47;;;21.10;61.50;;;;;;5006878;28;20041;-79
2023/08/07 10:30:08;;;;;;;0.65;0.40;;;21.10;61.60;;;;;;5023387;28;20048;-80
2023/08/07 10:32:34;;;;;;;0.50;0.50;;;21.10;61.90;;;;;;5024439;28;20502;-80
2023/08/07 10:35:04;;;;;;;0.70;0.52;;;21.10;62.10;;;;;;5019810;28;20033;-80
2023/08/07 10:37:42;;;;;;;1.20;0.45;;;21.10;62.40;;;;;;5021041;28;20574;-79
2023/08/07 10:40:09;;;;;;;0.35;0.22;;;21.10;62.60;;;;;;5019906;28;20522;-79
2023/08/07 10:42:50;;;;;;;0.45;0.40;;;21.10;62.80;;;;;;5021645;28;20095;-79
2023/08/07 10:45:21;;;;;;;1.05;0.40;;;21.10;63.00;;;;;;5019165;28;20047;-79
2023/08/07 10:47:57;;;;;;;0.75;0.70;;;21.10;63.30;;;;;;5042627;28;20041;-80
2023/08/07 10:50:28;;;;;;;2.28;0.40;;;21.10;64.00;;;;;;5021583;28;20045;-79
2023/08/07 10:52:54;;;;;;;0.70;0.45;;;21.20;63.40;;;;;;5023691;28;20077;-80
2023/08/07 10:55:20;;;;;;;0.57;0.40;;;21.20;63.50;;;;;;4991249;28;20057;-79
2023/08/07 10:57:46;;;;;;;0.85;0.60;;;21.20;63.50;;;;;;5027899;28;20036;-79
2023/08/07 11:00:12;;;;;;;0.52;0.40;;;21.20;63.60;;;;;;5027781;28;20061;-80
2023/08/07 11:02:41;;;;;;;0.55;0.30;;;21.20;63.80;;;;;;5027109;28;20633;-79
2023/08/07 11:05:06;;;;;;;0.73;0.50;;;21.20;63.80;;;;;;5023861;28;20099;-80
2023/08/07 11:07:32;;;;;;;0.43;0.40;;;21.20;63.90;;;;;;5025668;28;20049;-80
2023/08/07 11:09:58;;;;;;;0.80;0.40;;;21.30;64.10;;;;;;5026093;28;20033;-80
2023/08/07 11:12:27;;;;;;;0.93;0.60;;;21.30;64.10;;;;;;5027628;28;20045;-80
2023/08/07 11:14:56;;;;;;;0.63;0.52;;;21.20;64.20;;;;;;5007261;28;20044;-80
2023/08/07 11:17:25;;;;;;;0.95;0.50;;;21.30;64.20;;;;;;5028183;28;20073;-79
2023/08/07 11:19:50;;;;;;;0.52;0.40;;;21.30;64.20;;;;;;5025808;28;20128;-80
2023/08/07 11:22:16;;;;;;;0.55;0.40;;;21.30;64.30;;;;;;5025390;28;20375;-79
2023/08/07 11:24:41;;;;;;;0.65;0.52;;;21.30;64.30;;;;;;5007606;28;20048;-79
2023/08/07 11:27:07;;;;;;;0.52;0.43;;;21.40;64.40;;;;;;5026258;28;20054;-80
2023/08/07 11:29:33;;;;;;;0.38;0.30;;;21.30;64.30;;;;;;5022669;28;20463;-80
2023/08/07 11:31:59;;;;;;;1.05;0.75;;;21.40;65.10;;;;;;4994041;28;20200;-79
2023/08/07 11:34:25;;;;;;;1.85;0.47;;;21.40;66.50;;;;;;5003554;28;20079;-81
2023/08/07 11:36:51;;;;;;;0.40;0.40;;;21.40;64.90;;;;;;5025642;28;20045;-80
2023/08/07 11:39:17;;;;;;;9.30;4.00;;;21.40;64.80;;;;;;5025639;28;20081;-81
2023/08/07 11:41:44;;;;;;;7.78;4.00;;;21.40;65.50;;;;;;5024310;28;20516;-82
2023/08/07 11:44:09;;;;;;;6.13;2.92;;;21.50;61.50;;;;;;5005746;28;20034;-81
2023/08/07 11:46:35;;;;;;;3.30;2.55;;;21.40;62.70;;;;;;5027013;28;20042;-80
2023/08/07 11:49:01;;;;;;;5.00;2.30;;;21.40;62.10;;;;;;5026768;28;20413;-80
2023/08/07 11:51:28;;;;;;;1.88;1.60;;;21.40;61.40;;;;;;5025571;28;20041;-80
2023/08/07 11:53:56;;;;;;;2.15;1.50;;;21.40;60.30;;;;;;5027296;28;20042;-80
2023/08/07 11:56:22;;;;;;;2.38;1.20;;;21.50;60.10;;;;;;5010167;28;20495;-81
2023/08/07 11:58:48;;;;;;;4.07;1.10;;;21.40;60.30;;;;;;5025062;28;20056;-79
2023/08/07 12:01:19;;;;;;;3.25;1.00;;;21.40;59.40;;;;;;5025630;28;20811;-78
2023/08/07 12:03:56;;;;;;;1.67;0.80;;;21.50;58.60;;;;;;5026289;28;20037;-80
2023/08/07 12:06:25;;;;;;;0.77;0.60;;;21.40;58.80;;;;;;5022392;28;20050;-81
2023/08/07 12:08:54;;;;;;;2.08;0.95;;;21.40;58.60;;;;;;5024259;28;20094;-79
2023/08/07 12:11:20;;;;;;;2.45;0.60;;;21.40;58.60;;;;;;5022827;28;20481;-78
2023/08/07 12:13:46;;;;;;;1.10;0.50;;;21.40;58.50;;;;;;5025584;28;20133;-77
2023/08/07 12:16:15;;;;;;;0.82;0.68;;;21.50;58.40;;;;;;5023932;28;20120;-79
2023/08/07 12:18:48;;;;;;;1.83;0.52;;;21.50;58.80;;;;;;5005661;28;20503;-79
2023/08/07 12:21:22;;;;;;;1.05;0.60;;;21.50;58.90;;;;;;5025229;28;20037;-78
2023/08/07 12:23:48;;;;;;;0.63;0.50;;;21.50;58.80;;;;;;5026135;28;20038;-78
2023/08/07 12:26:14;;;;;;;1.92;0.50;;;21.50;58.30;;;;;;5024810;28;20042;-78
2023/08/07 12:28:39;;;;;;;0.98;0.52;;;21.50;58.70;;;;;;5021552;28;20164;-78
2023/08/07 12:31:06;;;;;;;2.22;0.82;;;21.50;58.50;;;;;;5024140;28;20064;-78
2023/08/07 12:33:32;;;;;;;1.92;0.68;;;21.50;58.50;;;;;;4990480;28;20503;-78
2023/08/07 12:35:58;;;;;;;0.63;0.50;;;21.50;58.40;;;;;;5025293;28;20066;-78
2023/08/07 12:38:23;;;;;;;0.82;0.70;;;21.50;57.90;;;;;;5005443;28;20068;-78
2023/08/07 12:40:49;;;;;;;0.93;0.40;;;21.50;58.00;;;;;;5023051;28;20029;-79
2023/08/07 12:43:15;;;;;;;0.88;0.50;;;21.50;57.50;;;;;;5025540;28;20399;-79